Time;durP1;ratioP1;P1;durP2;ratioP2;P2;SDS_P1;SDS_P2;PMS_P1;PMS_P2;Temp;Humidity;BMP_temperature;BMP_pressure;BME280_temperature;BME280_humidity;BME280_pressure;Samples;Min_cycle;Max_cycle;Signal;HPM_P1;HPM_P2
2023/03/23 00:02:16;;;;;;;;;;;22.30;55.60;;;;;;6130106;29;19992;-49
2023/03/23 00:05:17;;;;;;;;;;;21.80;55.30;;;;;;6130184;29;20013;-49
2023/03/23 00:08:20;;;;;;;;;;;22.00;55.40;;;;;;6130251;29;20013;-46
2023/03/23 00:11:22;;;;;;;;;;;22.30;55.50;;;;;;6128601;29;19958;-48
2023/03/23 00:14:24;;;;;;;;;;;22.30;55.50;;;;;;6129744;29;20350;-46
2023/03/23 00:17:25;;;;;;;;;;;21.80;55.40;;;;;;6131198;29;19973;-49
2023/03/23 00:20:29;;;;;;;;;;;22.10;55.70;;;;;;6130262;29;19923;-44
2023/03/23 00:23:30;;;;;;;;;;;21.90;55.60;;;;;;6129810;29;20398;-45
2023/03/23 00:26:35;;;;;;;;;;;22.10;55.70;;;;;;6130709;29;20336;-46
2023/03/23 00:29:36;;;;;;;;;;;21.90;55.40;;;;;;6130393;29;19970;-50
2023/03/23 00:32:37;;;;;;;;;;;21.90;55.50;;;;;;6132870;29;19923;-45
2023/03/23 00:35:40;;;;;;;;;;;22.40;55.80;;;;;;6130719;29;20256;-44
2023/03/23 00:38:41;;;;;;;;;;;22.30;55.70;;;;;;6129687;29;19923;-49
2023/03/23 00:41:43;;;;;;;;;;;22.20;55.60;;;;;;6129521;29;20019;-46
2023/03/23 00:44:45;;;;;;;;;;;21.90;55.40;;;;;;6129008;29;19929;-49
2023/03/23 00:47:46;;;;;;;;;;;21.90;55.80;;;;;;6130463;29;19923;-45
2023/03/23 00:50:48;;;;;;;;;;;21.90;55.70;;;;;;6130399;29;20291;-43
2023/03/23 00:53:49;;;;;;;;;;;22.10;55.70;;;;;;6129082;29;20398;-48
2023/03/23 00:56:50;;;;;;;;;;;21.90;55.70;;;;;;6130864;29;20017;-49
2023/03/23 00:59:51;;;;;;;;;;;22.00;55.70;;;;;;6130202;29;19993;-46
2023/03/23 01:02:53;;;;;;;;;;;22.10;55.80;;;;;;6130171;29;20454;-49
2023/03/23 01:05:55;;;;;;;;;;;21.90;55.70;;;;;;6130237;29;20013;-49
2023/03/23 01:08:56;;;;;;;;;;;22.20;55.80;;;;;;6129505;29;19930;-48
2023/03/23 01:11:59;;;;;;;;;;;22.40;55.80;;;;;;6128397;29;19923;-50
2023/03/23 01:15:00;;;;;;;;;;;21.90;55.60;;;;;;6129792;29;19929;-46
2023/03/23 01:18:01;;;;;;;;;;;21.90;55.90;;;;;;6129558;29;19923;-47
2023/03/23 01:21:05;;;;;;;;;;;21.90;55.70;;;;;;6128378;29;19933;-49
2023/03/23 01:24:07;;;;;;;;;;;21.90;55.60;;;;;;6129498;29;19922;-46
2023/03/23 01:27:08;;;;;;;;;;;21.70;55.80;;;;;;6129611;29;19923;-49
2023/03/23 01:30:11;;;;;;;;;;;22.00;56.00;;;;;;6129950;29;19922;-47
2023/03/23 01:33:13;;;;;;;;;;;21.80;55.50;;;;;;6127074;29;20404;-48
2023/03/23 01:36:15;;;;;;;;;;;21.70;55.50;;;;;;6128309;29;19929;-47
2023/03/23 01:39:17;;;;;;;;;;;22.00;55.80;;;;;;6128412;29;19923;-45
2023/03/23 01:42:21;;;;;;;;;;;22.20;55.70;;;;;;6129907;29;19962;-44
2023/03/23 01:45:24;;;;;;;;;;;21.90;55.70;;;;;;6130126;29;20437;-48
2023/03/23 01:48:28;;;;;;;;;;;22.20;55.90;;;;;;6128776;29;19922;-48
2023/03/23 01:51:30;;;;;;;;;;;21.80;55.80;;;;;;6131871;29;19923;-46
2023/03/23 01:54:31;;;;;;;;;;;21.70;55.80;;;;;;6134277;29;19998;-50
2023/03/23 01:57:34;;;;;;;;;;;22.20;56.60;;;;;;6133311;29;19927;-44
2023/03/23 02:00:40;;;;;;;;;;;21.80;55.70;;;;;;6134090;29;19923;-49
2023/03/23 02:03:43;;;;;;;;;;;21.90;55.70;;;;;;6133808;29;20391;-48
2023/03/23 02:06:45;;;;;;;;;;;21.80;55.70;;;;;;6133199;29;19922;-47
2023/03/23 02:09:52;;;;;;;;;;;21.70;55.80;;;;;;6133490;29;19965;-48
2023/03/23 02:12:53;;;;;;;;;;;22.60;56.00;;;;;;6133944;29;19954;-47
2023/03/23 02:15:59;;;;;;;;;;;22.20;55.90;;;;;;6133780;28;19930;-48
2023/03/23 02:19:07;;;;;;;;;;;21.80;55.70;;;;;;6132585;29;19962;-49
2023/03/23 02:22:22;;;;;;;;;;;21.50;55.60;;;;;;6133252;29;19923;-49
2023/03/23 02:25:31;;;;;;;;;;;22.00;55.90;;;;;;6133516;29;19926;-45
2023/03/23 02:28:47;;;;;;;;;;;21.90;55.80;;;;;;6133358;29;19969;-48
2023/03/23 02:31:57;;;;;;;;;;;21.80;55.70;;;;;;6131721;29;19954;-50
2023/03/23 02:35:00;;;;;;;;;;;22.20;55.90;;;;;;6131477;29;20431;-49
2023/03/23 02:38:02;;;;;;;;;;;21.70;55.70;;;;;;6133576;29;19922;-49
2023/03/23 02:41:04;;;;;;;;;;;21.60;55.70;;;;;;6131282;29;20387;-45
2023/03/23 02:44:05;;;;;;;;;;;22.20;55.80;;;;;;6132691;29;19946;-46
2023/03/23 02:47:08;;;;;;;;;;;22.20;56.00;;;;;;6131678;29;19926;-49
2023/03/23 02:50:11;;;;;;;;;;;22.00;55.90;;;;;;6130916;29;19923;-47
2023/03/23 02:53:14;;;;;;;;;;;22.10;56.00;;;;;;6130567;29;19934;-45
2023/03/23 02:56:15;;;;;;;;;;;21.80;55.70;;;;;;6131632;29;19930;-50
2023/03/23 02:59:16;;;;;;;;;;;21.80;55.90;;;;;;6131046;29;20378;-44
2023/03/23 03:02:18;;;;;;;;;;;21.70;55.80;;;;;;6129870;29;19926;-46
2023/03/23 03:05:26;;;;;;;;;;;22.10;56.00;;;;;;6131174;29;19923;-48
2023/03/23 03:08:30;;;;;;;;;;;22.30;53.40;;;;;;6130963;29;20013;-47
2023/03/23 03:11:34;;;;;;;;;;;22.10;55.90;;;;;;6129858;29;19923;-45
2023/03/23 03:14:37;;;;;;;;;;;22.00;55.90;;;;;;6130757;29;19962;-48
2023/03/23 03:17:43;;;;;;;;;;;21.70;55.60;;;;;;6130620;29;19923;-47
2023/03/23 03:20:47;;;;;;;;;;;21.70;55.60;;;;;;6130735;29;20359;-49
2023/03/23 03:23:51;;;;;;;;;;;21.70;55.70;;;;;;6130327;29;19922;-46
2023/03/23 03:26:57;;;;;;;;;;;21.60;55.70;;;;;;6130304;29;20303;-46
2023/03/23 03:30:09;;;;;;;;;;;21.80;55.70;;;;;;6130488;29;19923;-46
2023/03/23 03:33:11;;;;;;;;;;;21.70;55.70;;;;;;6130069;29;19922;-45
2023/03/23 03:36:15;;;;;;;;;;;21.70;55.70;;;;;;6130302;29;19945;-48
2023/03/23 03:39:17;;;;;;;;;;;22.40;56.00;;;;;;6130104;29;20395;-49
2023/03/23 03:42:18;;;;;;;;;;;22.00;55.90;;;;;;6129997;29;19922;-46
2023/03/23 03:45:20;;;;;;;;;;;22.40;56.10;;;;;;6130740;29;19956;-48
2023/03/23 03:48:21;;;;;;;;;;;21.80;55.70;;;;;;6129652;29;19923;-50
2023/03/23 03:51:23;;;;;;;;;;;21.60;55.90;;;;;;6129304;29;20387;-45
2023/03/23 03:54:26;;;;;;;;;;;22.00;55.90;;;;;;6130139;28;19930;-49
2023/03/23 03:57:27;;;;;;;;;;;22.00;53.10;;;;;;6129646;29;19923;-47
2023/03/23 04:00:52;;;;;;;;;;;21.70;55.90;;;;;;6129324;29;19962;-48
2023/03/23 04:03:58;;;;;;;;;;;22.20;53.40;;;;;;6129778;29;20346;-46
2023/03/23 04:07:05;;;;;;;;;;;22.00;56.00;;;;;;6129968;29;20383;-48
2023/03/23 04:10:07;;;;;;;;;;;21.50;55.70;;;;;;6129560;29;19941;-47
2023/03/23 04:13:09;;;;;;;;;;;21.70;55.70;;;;;;6129296;28;19929;-49
2023/03/23 05:06:52;;;;;;;;;;;21.70;53.10;;;;;;6140250;29;19910;-49
2023/03/23 05:10:00;;;;;;;;;;;21.60;55.80;;;;;;6141626;29;20387;-50
2023/03/23 05:13:05;;;;;;;;;;;22.40;56.40;;;;;;6140153;29;19922;-51
2023/03/23 05:16:07;;;;;;;;;;;21.60;55.70;;;;;;6140899;29;19999;-50
2023/03/23 05:19:09;;;;;;;;;;;21.60;55.70;;;;;;6141527;29;19929;-51
2023/03/23 05:22:14;;;;;;;;;;;21.80;55.90;;;;;;6141399;29;19922;-50
2023/03/23 05:25:21;;;;;;;;;;;21.60;55.80;;;;;;6141112;29;19923;-50
2023/03/23 06:41:29;;;;;;;;;;;21.90;53.60;;;;;;6137671;29;19942;-47
2023/03/23 06:44:30;;;;;;;;;;;22.30;56.50;;;;;;6136957;29;19923;-50
2023/03/23 06:47:32;;;;;;;;;;;21.80;56.20;;;;;;6135681;29;19950;-46
2023/03/23 06:50:33;;;;;;;;;;;22.30;56.50;;;;;;6135413;29;19926;-48
2023/03/23 06:53:35;;;;;;;;;;;21.60;56.00;;;;;;6137390;29;19930;-48
2023/03/23 06:56:39;;;;;;;;;;;21.40;55.90;;;;;;6135327;29;19965;-47
2023/03/23 06:59:42;;;;;;;;;;;21.60;55.90;;;;;;6135593;29;19999;-48
2023/03/23 07:02:44;;;;;;;;;;;21.90;56.10;;;;;;6140700;29;19962;-48
2023/03/23 07:05:46;;;;;;;;;;;21.70;55.90;;;;;;6139899;29;19926;-46
2023/03/23 07:08:47;;;;;;;;;;;22.00;56.00;;;;;;6141565;29;19929;-47
2023/03/23 07:11:54;;;;;;;;;;;21.60;55.60;;;;;;6137958;29;19989;-49
2023/03/23 07:15:05;;;;;;;;;;;22.00;56.10;;;;;;6141634;29;19922;-45
2023/03/23 07:18:06;;;;;;;;;;;21.40;55.70;;;;;;6138134;29;19933;-50
2023/03/23 08:11:39;;;;;;;;;;;21.90;53.20;;;;;;6135243;29;20307;-52
2023/03/23 08:15:00;;;;;;;;;;;21.90;55.80;;;;;;6133457;28;19923;-52
2023/03/23 08:31:57;;;;;;;;;;;22.20;54.00;;;;;;6138453;29;19954;-53
2023/03/23 08:48:59;;;;;;;;;;;22.40;53.70;;;;;;6130233;29;20286;-51
2023/03/23 10:37:50;;;;;;;;;;;22.90;52.70;;;;;;6134535;29;19911;-45
2023/03/23 10:40:54;;;;;;;;;;;22.70;55.20;;;;;;6133508;29;20275;-48
2023/03/23 10:43:55;;;;;;;;;;;23.00;55.30;;;;;;6133584;29;19950;-47
2023/03/23 10:46:58;;;;;;;;;;;22.50;55.30;;;;;;6133491;29;19926;-47
2023/03/23 10:50:02;;;;;;;;;;;23.20;55.40;;;;;;6132910;29;19997;-48
2023/03/23 10:53:11;;;;;;;;;;;22.60;55.10;;;;;;6133486;29;20036;-45
2023/03/23 10:56:23;;;;;;;;;;;22.80;55.40;;;;;;6147905;29;19923;-50
2023/03/23 10:59:27;;;;;;;;;;;22.60;55.20;;;;;;6134521;29;19922;-46
2023/03/23 11:02:28;;;;;;;;;;;22.80;52.60;;;;;;6132572;29;19929;-47
2023/03/23 11:05:36;;;;;;;;;;;22.40;54.70;;;;;;6134027;29;19969;-46
2023/03/23 11:08:47;;;;;;;;;;;23.00;55.10;;;;;;6133462;29;20446;-46
2023/03/23 11:11:49;;;;;;;;;;;22.60;55.10;;;;;;6132493;29;19923;-44
2023/03/23 11:14:51;;;;;;;;;;;23.00;55.40;;;;;;6134790;29;20409;-45
2023/03/23 11:17:58;;;;;;;;;;;22.80;55.30;;;;;;6132199;29;20343;-49
2023/03/23 11:21:01;;;;;;;;;;;22.80;55.30;;;;;;6132492;29;20405;-50
2023/03/23 11:24:02;;;;;;;;;;;22.90;53.80;;;;;;6131282;29;19922;-45
2023/03/23 11:27:06;;;;;;;;;;;22.90;55.50;;;;;;6132132;29;19978;-45
2023/03/23 11:30:09;;;;;;;;;;;22.80;55.30;;;;;;6132686;29;20013;-48
2023/03/23 11:33:10;;;;;;;;;;;22.70;54.00;;;;;;6130451;29;19923;-49
2023/03/23 11:36:12;;;;;;;;;;;22.70;55.40;;;;;;6132800;29;19973;-49
2023/03/23 11:39:23;;;;;;;;;;;23.30;55.70;;;;;;6132081;29;19930;-50
2023/03/23 11:42:27;;;;;;;;;;;22.60;55.30;;;;;;6130641;29;19939;-48
2023/03/23 11:45:33;;;;;;;;;;;23.20;55.60;;;;;;6131279;29;20383;-50
2023/03/23 11:48:38;;;;;;;;;;;22.60;55.40;;;;;;6129451;29;20359;-49
2023/03/23 11:51:42;;;;;;;;;;;22.90;55.50;;;;;;6129386;29;20287;-46
2023/03/23 11:54:50;;;;;;;;;;;22.80;55.40;;;;;;6130974;29;20367;-48
2023/03/23 11:57:52;;;;;;;;;;;23.10;53.30;;;;;;6130916;29;19946;-48
2023/03/23 12:00:56;;;;;;;;;;;22.80;55.40;;;;;;6130248;29;20051;-48
2023/03/23 12:04:00;;;;;;;;;;;23.10;55.50;;;;;;6132533;29;19922;-47
2023/03/23 12:07:08;;;;;;;;;;;22.80;55.40;;;;;;6131554;29;19934;-49
2023/03/23 12:10:17;;;;;;;;;;;23.00;55.40;;;;;;6131053;29;20419;-46
2023/03/23 12:13:23;;;;;;;;;;;22.60;55.20;;;;;;6131962;29;19950;-49
2023/03/23 12:16:28;;;;;;;;;;;23.40;55.60;;;;;;6132199;29;19979;-47
2023/03/23 12:19:33;;;;;;;;;;;22.50;55.20;;;;;;6131653;29;20398;-47
2023/03/23 12:22:41;;;;;;;;;;;23.20;55.60;;;;;;6130961;29;19926;-46
2023/03/23 12:25:53;;;;;;;;;;;22.70;55.40;;;;;;6131941;29;19994;-47
2023/03/23 12:29:02;;;;;;;;;;;23.20;55.70;;;;;;6133017;29;20041;-47
2023/03/23 12:32:16;;;;;;;;;;;22.80;55.50;;;;;;6134724;29;19931;-47
2023/03/23 12:35:24;;;;;;;;;;;22.80;53.80;;;;;;6134188;29;20446;-48
2023/03/23 12:38:34;;;;;;;;;;;22.50;55.40;;;;;;6136441;29;19922;-49
2023/03/23 14:27:11;;;;;;;;;;;23.30;51.80;;;;;;6134595;29;19962;-51
2023/03/23 14:30:14;;;;;;;;;;;22.90;54.40;;;;;;6134997;29;19950;-53
2023/03/23 14:33:15;;;;;;;;;;;23.40;54.20;;;;;;6132215;29;19926;-50
2023/03/23 14:36:20;;;;;;;;;;;22.90;54.00;;;;;;6131062;29;19923;-54
2023/03/23 14:39:23;;;;;;;;;;;23.40;54.20;;;;;;6132826;29;19923;-52
2023/03/23 14:42:26;;;;;;;;;;;23.00;54.10;;;;;;6129983;29;19938;-53
2023/03/23 14:45:28;;;;;;;;;;;23.40;54.20;;;;;;6132985;29;19923;-52
2023/03/23 14:48:29;;;;;;;;;;;23.10;53.80;;;;;;6136144;29;19953;-48
2023/03/23 14:51:30;;;;;;;;;;;23.40;54.10;;;;;;6136987;29;19922;-48
2023/03/23 14:54:32;;;;;;;;;;;23.00;53.80;;;;;;6130731;29;20009;-53
2023/03/23 14:57:34;;;;;;;;;;;23.70;54.10;;;;;;6128417;29;19929;-53
2023/03/23 15:00:37;;;;;;;;;;;23.30;54.00;;;;;;6132161;29;19923;-45
2023/03/23 15:03:40;;;;;;;;;;;23.50;53.90;;;;;;6134915;29;19923;-54
2023/03/23 15:06:43;;;;;;;;;;;23.30;53.80;;;;;;6135141;29;19930;-53
2023/03/23 15:09:45;;;;;;;;;;;23.90;54.20;;;;;;6131048;29;19990;-52
2023/03/23 15:12:49;;;;;;;;;;;23.00;53.60;;;;;;6130113;29;19926;-52
2023/03/23 15:15:50;;;;;;;;;;;23.50;54.00;;;;;;6129459;29;19929;-53
2023/03/23 15:18:53;;;;;;;;;;;23.40;53.80;;;;;;6129978;29;19923;-52
2023/03/23 15:22:03;;;;;;;;;;;23.50;53.80;;;;;;6129808;29;20423;-50
2023/03/23 15:25:09;;;;;;;;;;;23.50;53.80;;;;;;6128295;29;19954;-50
2023/03/23 15:28:19;;;;;;;;;;;23.60;53.90;;;;;;6128124;29;19927;-49
2023/03/23 15:31:24;;;;;;;;;;;23.10;53.60;;;;;;6129506;29;19923;-48
2023/03/23 15:34:28;;;;;;;;;;;23.70;53.80;;;;;;6129304;29;20284;-50
2023/03/23 15:37:30;;;;;;;;;;;23.50;53.80;;;;;;6129152;29;20355;-55
2023/03/23 15:40:33;;;;;;;;;;;23.90;54.00;;;;;;6129371;29;20066;-53
2023/03/23 15:43:36;;;;;;;;;;;23.00;53.60;;;;;;6128832;29;19922;-54
2023/03/23 15:46:47;;;;;;;;;;;23.80;54.10;;;;;;6129101;29;19929;-53
2023/03/23 15:49:58;;;;;;;;;;;23.40;53.80;;;;;;6127982;29;19977;-53
2023/03/23 15:52:59;;;;;;;;;;;23.70;51.30;;;;;;6127444;29;19974;-53
2023/03/23 15:56:01;;;;;;;;;;;23.20;53.50;;;;;;6128664;29;19974;-52
2023/03/23 15:59:03;;;;;;;;;;;24.00;54.00;;;;;;6128303;29;19923;-53
2023/03/23 16:02:04;;;;;;;;;;;23.30;53.60;;;;;;6128145;29;19926;-54
2023/03/23 16:05:06;;;;;;;;;;;24.10;54.10;;;;;;6128720;28;19923;-52
2023/03/23 16:08:08;;;;;;;;;;;23.60;53.70;;;;;;6128451;29;19957;-51
2023/03/23 16:11:09;;;;;;;;;;;23.70;53.80;;;;;;6128011;28;19996;-53
2023/03/23 16:14:12;;;;;;;;;;;23.60;53.70;;;;;;6128449;29;19978;-53
2023/03/23 16:17:15;;;;;;;;;;;23.70;53.90;;;;;;6127185;29;19927;-53
2023/03/23 16:20:18;;;;;;;;;;;23.20;53.50;;;;;;6127973;29;19946;-53
2023/03/23 16:23:19;;;;;;;;;;;23.80;53.80;;;;;;6126973;29;19923;-53
2023/03/23 16:26:21;;;;;;;;;;;23.40;53.50;;;;;;6128140;29;19946;-53
2023/03/23 16:29:23;;;;;;;;;;;24.00;54.00;;;;;;6128189;29;19981;-51
2023/03/23 16:32:41;;;;;;;;;;;23.40;53.60;;;;;;6127604;29;19923;-51
2023/03/23 16:35:42;;;;;;;;;;;23.60;53.70;;;;;;6128697;29;19929;-52
2023/03/23 16:38:44;;;;;;;;;;;23.60;53.70;;;;;;6129767;29;19930;-54
2023/03/23 16:41:52;;;;;;;;;;;23.90;53.70;;;;;;6128077;28;19922;-53
2023/03/23 16:44:54;;;;;;;;;;;23.30;53.60;;;;;;6127525;29;19927;-52
2023/03/23 16:48:00;;;;;;;;;;;24.10;54.00;;;;;;6129922;28;19927;-53
2023/03/23 16:51:01;;;;;;;;;;;23.50;53.90;;;;;;6131457;29;20367;-53
2023/03/23 16:54:02;;;;;;;;;;;24.00;54.10;;;;;;6129451;28;20316;-53
2023/03/23 16:57:05;;;;;;;;;;;23.40;53.70;;;;;;6131214;29;19970;-45
2023/03/23 17:00:09;;;;;;;;;;;23.80;53.00;;;;;;6138100;29;19989;-47
2023/03/23 17:03:12;;;;;;;;;;;23.60;53.30;;;;;;6139306;29;19922;-45
2023/03/23 17:06:13;;;;;;;;;;;23.70;53.60;;;;;;6137553;29;20410;-44
2023/03/23 17:09:14;;;;;;;;;;;23.60;53.40;;;;;;6137838;29;19927;-48
2023/03/23 17:12:17;;;;;;;;;;;23.90;53.90;;;;;;6138068;29;19980;-46
2023/03/23 17:15:19;;;;;;;;;;;23.50;53.60;;;;;;6139209;29;19922;-48
2023/03/23 17:18:20;;;;;;;;;;;23.70;53.80;;;;;;6135901;28;19922;-45
2023/03/23 17:21:24;;;;;;;;;;;23.60;53.70;;;;;;6133742;29;20394;-47
2023/03/23 17:24:26;;;;;;;;;;;23.90;53.90;;;;;;6135604;28;19922;-46
2023/03/23 17:27:28;;;;;;;;;;;23.50;53.60;;;;;;6136977;29;19923;-44
2023/03/23 17:30:30;;;;;;;;;;;23.70;53.80;;;;;;6135263;29;19922;-44
2023/03/23 17:33:32;;;;;;;;;;;23.30;53.80;;;;;;6135549;29;19934;-43
2023/03/23 17:36:33;;;;;;;;;;;24.00;54.20;;;;;;6133635;29;20312;-47
2023/03/23 17:39:35;;;;;;;;;;;23.20;53.50;;;;;;6135073;29;19926;-43
2023/03/23 17:42:44;;;;;;;;;;;23.10;54.00;;;;;;6134978;29;19954;-47
2023/03/23 17:45:47;;;;;;;;;;;23.30;53.80;;;;;;6134621;29;20271;-43
2023/03/23 17:48:50;;;;;;;;;;;23.80;54.40;;;;;;6134247;29;19929;-46
2023/03/23 17:51:51;;;;;;;;;;;23.60;54.00;;;;;;6132260;29;19929;-49
2023/03/23 17:54:53;;;;;;;;;;;23.60;54.30;;;;;;6134972;29;19977;-45
2023/03/23 17:57:54;;;;;;;;;;;23.60;54.10;;;;;;6135002;29;19923;-45
2023/03/23 18:00:56;;;;;;;;;;;23.80;54.50;;;;;;6134978;29;19923;-46
2023/03/23 18:03:58;;;;;;;;;;;23.10;54.20;;;;;;6133986;29;19978;-48
2023/03/23 18:06:59;;;;;;;;;;;23.80;54.60;;;;;;6134492;29;19926;-45
2023/03/23 18:10:01;;;;;;;;;;;23.40;54.40;;;;;;6135102;29;19948;-50
2023/03/23 18:13:04;;;;;;;;;;;23.50;54.50;;;;;;6134674;29;19957;-47
2023/03/23 18:16:09;;;;;;;;;;;23.40;54.50;;;;;;6133105;29;19951;-48
2023/03/23 18:19:13;;;;;;;;;;;23.80;55.00;;;;;;6131645;29;20013;-48
2023/03/23 18:22:15;;;;;;;;;;;23.30;54.60;;;;;;6129127;29;19926;-47
2023/03/23 18:25:17;;;;;;;;;;;23.40;52.00;;;;;;6129418;29;19929;-46
2023/03/23 18:28:20;;;;;;;;;;;23.20;54.60;;;;;;6128514;29;19945;-47
2023/03/23 18:31:22;;;;;;;;;;;23.40;54.60;;;;;;6129174;28;19922;-45
2023/03/23 18:34:24;;;;;;;;;;;23.00;54.60;;;;;;6132994;29;20391;-49
2023/03/23 18:37:25;;;;;;;;;;;23.60;55.00;;;;;;6132773;29;20354;-47
2023/03/23 18:40:28;;;;;;;;;;;22.90;54.70;;;;;;6133817;29;20360;-46
2023/03/23 18:43:30;;;;;;;;;;;23.40;55.10;;;;;;6134097;28;19969;-49
2023/03/23 18:46:32;;;;;;;;;;;22.90;54.90;;;;;;6134318;29;19922;-48
2023/03/23 18:49:33;;;;;;;;;;;23.20;55.10;;;;;;6135239;29;19923;-48
2023/03/23 18:52:35;;;;;;;;;;;23.10;55.30;;;;;;6135063;29;19923;-45
2023/03/23 18:55:37;;;;;;;;;;;23.60;55.60;;;;;;6134673;28;19930;-49
2023/03/23 18:58:38;;;;;;;;;;;22.80;55.10;;;;;;6134886;29;19926;-49
2023/03/23 19:01:40;;;;;;;;;;;23.30;55.30;;;;;;6135001;29;20283;-49
2023/03/23 19:04:42;;;;;;;;;;;22.70;55.10;;;;;;6134701;29;19929;-47
2023/03/23 19:07:43;;;;;;;;;;;23.00;55.30;;;;;;6136180;29;19974;-48
2023/03/23 19:10:44;;;;;;;;;;;22.80;55.50;;;;;;6136666;29;19923;-48
2023/03/23 19:13:45;;;;;;;;;;;23.10;55.50;;;;;;6136972;29;19923;-46
2023/03/23 19:17:02;;;;;;;;;;;22.60;55.40;;;;;;6137226;29;19994;-49
2023/03/23 19:20:05;;;;;;;;;;;23.40;55.80;;;;;;6136572;29;19929;-49
2023/03/23 19:23:06;;;;;;;;;;;22.60;55.40;;;;;;6136225;29;19931;-49
2023/03/23 19:26:08;;;;;;;;;;;23.10;55.80;;;;;;6135292;29;19923;-49
2023/03/23 19:29:11;;;;;;;;;;;22.60;55.40;;;;;;6133918;29;19922;-48
2023/03/23 19:32:16;;;;;;;;;;;23.30;55.90;;;;;;6136125;29;20454;-47
2023/03/23 19:35:17;;;;;;;;;;;22.70;55.60;;;;;;6139397;29;19922;-47
2023/03/23 19:38:20;;;;;;;;;;;23.30;56.20;;;;;;6139638;29;19947;-46
2023/03/23 19:41:21;;;;;;;;;;;22.60;55.60;;;;;;6138727;29;19923;-46
2023/03/23 19:44:26;;;;;;;;;;;23.00;56.10;;;;;;6134192;29;19923;-49
2023/03/23 19:47:28;;;;;;;;;;;23.00;55.90;;;;;;6134271;29;19923;-49
2023/03/23 19:50:32;;;;;;;;;;;23.30;56.20;;;;;;6133297;29;19930;-49
2023/03/23 19:53:34;;;;;;;;;;;22.90;56.20;;;;;;6133787;29;20018;-48
2023/03/23 19:56:35;;;;;;;;;;;23.20;56.30;;;;;;6133970;29;19958;-46
2023/03/23 19:59:37;;;;;;;;;;;22.60;55.90;;;;;;6134049;29;20024;-51
2023/03/23 20:02:39;;;;;;;;;;;23.10;56.30;;;;;;6134948;29;19923;-47
2023/03/23 20:05:41;;;;;;;;;;;22.40;56.00;;;;;;6138206;29;20352;-47
2023/03/23 20:08:43;;;;;;;;;;;22.90;56.20;;;;;;6137826;29;20288;-49
2023/03/23 20:11:44;;;;;;;;;;;22.90;56.20;;;;;;6135070;29;19927;-46
2023/03/23 20:14:47;;;;;;;;;;;22.30;56.10;;;;;;6136507;29;19923;-49
2023/03/23 20:17:49;;;;;;;;;;;22.70;56.20;;;;;;6135090;29;19923;-48
2023/03/23 20:20:58;;;;;;;;;;;22.80;56.20;;;;;;6136896;29;19933;-48
2023/03/23 20:24:01;;;;;;;;;;;22.70;56.10;;;;;;6137510;29;19927;-46
2023/03/23 20:27:03;;;;;;;;;;;22.90;56.40;;;;;;6137097;29;20290;-45
2023/03/23 20:30:06;;;;;;;;;;;22.80;56.30;;;;;;6135298;29;19926;-46
2023/03/23 20:33:08;;;;;;;;;;;23.10;56.50;;;;;;6135747;28;19946;-50
2023/03/23 20:36:10;;;;;;;;;;;22.40;56.20;;;;;;6137221;29;20001;-46
2023/03/23 20:39:12;;;;;;;;;;;23.00;56.40;;;;;;6133389;29;19938;-48
2023/03/23 20:42:14;;;;;;;;;;;22.70;56.40;;;;;;6134591;29;20335;-48
2023/03/23 20:45:17;;;;;;;;;;;22.20;56.10;;;;;;6135245;29;19927;-46
2023/03/23 20:48:19;;;;;;;;;;;22.30;56.10;;;;;;6133688;29;20406;-45
2023/03/23 20:51:20;;;;;;;;;;;22.80;56.60;;;;;;6133802;29;19923;-46
2023/03/23 20:54:23;;;;;;;;;;;22.30;56.40;;;;;;6133162;29;20386;-46
2023/03/23 20:57:24;;;;;;;;;;;22.20;56.40;;;;;;6134335;29;19923;-46
2023/03/23 21:00:26;;;;;;;;;;;22.60;56.70;;;;;;6133219;29;19923;-47
2023/03/23 21:03:29;;;;;;;;;;;22.20;56.50;;;;;;6135181;29;19923;-48
2023/03/23 21:06:32;;;;;;;;;;;22.20;56.50;;;;;;6133056;29;19941;-45
2023/03/23 21:09:34;;;;;;;;;;;22.70;56.60;;;;;;6133713;29;19947;-46
2023/03/23 21:12:35;;;;;;;;;;;22.30;56.50;;;;;;6135117;29;19926;-47
2023/03/23 21:15:37;;;;;;;;;;;22.50;56.80;;;;;;6138857;29;19930;-50
2023/03/23 21:18:39;;;;;;;;;;;22.20;56.70;;;;;;6139812;29;19923;-48
2023/03/23 21:21:41;;;;;;;;;;;22.70;56.90;;;;;;6138990;29;20356;-48
2023/03/23 21:24:57;;;;;;;;;;;22.50;56.70;;;;;;6137029;29;19929;-49
2023/03/23 21:27:59;;;;;;;;;;;23.00;57.00;;;;;;6138172;29;19922;-48
2023/03/23 21:31:02;;;;;;;;;;;22.20;56.60;;;;;;6151551;29;19923;-46
2023/03/23 21:34:04;;;;;;;;;;;22.20;56.60;;;;;;6137673;29;20391;-49
2023/03/23 21:37:05;;;;;;;;;;;22.20;56.70;;;;;;6140125;29;19923;-50
2023/03/23 21:40:12;;;;;;;;;;;23.00;57.30;;;;;;6131941;29;19923;-46
2023/03/23 21:43:14;;;;;;;;;;;22.60;56.80;;;;;;6130873;29;19923;-46
2023/03/23 21:46:17;;;;;;;;;;;22.60;57.10;;;;;;6134209;29;19945;-48
2023/03/23 21:49:19;;;;;;;;;;;22.50;56.80;;;;;;6135623;29;20402;-49
2023/03/23 21:52:20;;;;;;;;;;;22.80;57.10;;;;;;6135366;29;19923;-44
2023/03/23 21:55:21;;;;;;;;;;;22.50;56.90;;;;;;6132879;29;19929;-46
2023/03/23 21:58:25;;;;;;;;;;;22.10;56.70;;;;;;6132995;28;20344;-46
2023/03/23 22:01:28;;;;;;;;;;;22.40;56.80;;;;;;6132746;29;19972;-48
2023/03/23 22:04:30;;;;;;;;;;;23.00;57.20;;;;;;6136430;28;19963;-48
2023/03/23 22:07:32;;;;;;;;;;;22.00;56.80;;;;;;6137383;29;19922;-47
2023/03/23 22:10:34;;;;;;;;;;;22.30;56.90;;;;;;6138906;29;20017;-50
2023/03/23 22:13:36;;;;;;;;;;;22.50;57.00;;;;;;6136841;29;20413;-46
2023/03/23 22:16:37;;;;;;;;;;;22.20;56.80;;;;;;6134471;29;19922;-48
2023/03/23 22:19:39;;;;;;;;;;;22.20;56.70;;;;;;6136717;29;19998;-47
2023/03/23 22:22:41;;;;;;;;;;;22.40;57.10;;;;;;6136132;28;19981;-49
2023/03/23 22:25:45;;;;;;;;;;;22.40;57.10;;;;;;6136301;29;19946;-47
2023/03/23 22:28:48;;;;;;;;;;;22.70;57.20;;;;;;6136619;29;19986;-48
2023/03/23 22:31:50;;;;;;;;;;;22.00;56.80;;;;;;6134213;29;19923;-45
2023/03/23 22:34:52;;;;;;;;;;;21.90;56.90;;;;;;6134982;29;19923;-48
2023/03/23 22:37:53;;;;;;;;;;;22.00;57.10;;;;;;6135681;29;19934;-46
2023/03/23 22:40:55;;;;;;;;;;;22.80;57.40;;;;;;6136508;28;19982;-46
2023/03/23 22:43:56;;;;;;;;;;;22.40;57.20;;;;;;6136251;29;20456;-47
2023/03/23 22:46:58;;;;;;;;;;;21.90;56.90;;;;;;6136751;29;20022;-48
2023/03/23 22:50:00;;;;;;;;;;;22.10;57.00;;;;;;6137804;29;19923;-48
2023/03/23 22:53:01;;;;;;;;;;;21.90;57.00;;;;;;6135540;29;19922;-47
2023/03/23 22:56:06;;;;;;;;;;;22.20;57.10;;;;;;6137795;29;19926;-47
2023/03/23 22:59:08;;;;;;;;;;;21.80;56.80;;;;;;6138371;29;19926;-49
2023/03/23 23:02:09;;;;;;;;;;;22.00;57.10;;;;;;6136758;29;19922;-48
2023/03/23 23:05:11;;;;;;;;;;;22.40;57.10;;;;;;6137536;29;19926;-47
2023/03/23 23:08:13;;;;;;;;;;;22.00;57.20;;;;;;6135270;29;19923;-48
2023/03/23 23:11:20;;;;;;;;;;;21.90;57.00;;;;;;6135750;29;19927;-43
2023/03/23 23:14:21;;;;;;;;;;;22.20;57.20;;;;;;6137223;29;19994;-47
2023/03/23 23:17:23;;;;;;;;;;;22.00;57.30;;;;;;6138189;29;19923;-48
2023/03/23 23:20:25;;;;;;;;;;;22.00;57.20;;;;;;6137856;29;19933;-46
2023/03/23 23:23:27;;;;;;;;;;;22.20;57.30;;;;;;6137841;29;19922;-46
2023/03/23 23:26:28;;;;;;;;;;;22.00;57.20;;;;;;6138198;29;19930;-47
2023/03/23 23:29:30;;;;;;;;;;;21.90;57.20;;;;;;6138700;29;20446;-47
2023/03/23 23:32:32;;;;;;;;;;;22.20;57.10;;;;;;6139025;29;19923;-48
2023/03/23 23:35:35;;;;;;;;;;;22.20;57.10;;;;;;6138853;29;19981;-47
2023/03/23 23:38:37;;;;;;;;;;;21.90;57.20;;;;;;6139732;28;19993;-46
2023/03/23 23:41:38;;;;;;;;;;;22.20;57.80;;;;;;6140257;29;19922;-48
2023/03/23 23:44:41;;;;;;;;;;;22.20;57.40;;;;;;6140062;29;19930;-46
2023/03/23 23:47:43;;;;;;;;;;;21.80;57.30;;;;;;6136719;29;19929;-45
2023/03/23 23:50:47;;;;;;;;;;;22.10;57.50;;;;;;6136053;29;19946;-46
2023/03/23 23:53:52;;;;;;;;;;;21.70;57.30;;;;;;6139860;29;19929;-46
2023/03/23 23:56:53;;;;;;;;;;;22.20;57.60;;;;;;6138777;29;19922;-49
2023/03/23 23:59:54;;;;;;;;;;;21.80;57.30;;;;;;6139132;29;19923;-47
